createdAt,value
2022-08-29T00:01:23.008Z,8.60
2022-08-29T00:03:50.351Z,12.07
2022-08-29T00:06:17.388Z,5.55
2022-08-29T00:08:44.393Z,11.10
2022-08-29T00:11:11.392Z,6.05
2022-08-29T00:13:38.576Z,10.70
2022-08-29T00:16:06.420Z,10.63
2022-08-29T00:18:33.701Z,7.28
2022-08-29T00:21:01.080Z,9.60
2022-08-29T00:23:28.327Z,9.18
2022-08-29T00:25:56.161Z,7.38
2022-08-29T00:28:23.658Z,8.85
2022-08-29T00:30:51.293Z,9.80
2022-08-29T00:33:18.983Z,9.68
2022-08-29T00:35:47.392Z,14.52
2022-08-29T00:38:18.235Z,9.90
2022-08-29T00:40:54.726Z,7.80
2022-08-29T00:43:30.099Z,12.32
2022-08-29T00:46:46.563Z,12.00
2022-08-29T00:49:39.741Z,9.52
2022-08-29T00:52:17.137Z,7.15
2022-08-29T00:54:49.034Z,7.28
2022-08-29T00:57:18.794Z,7.55
2022-08-29T00:59:47.327Z,7.75
2022-08-29T01:02:14.338Z,6.22
2022-08-29T01:04:42.132Z,6.50
2022-08-29T01:07:10.182Z,6.65
2022-08-29T01:09:39.493Z,11.93
2022-08-29T01:12:16.785Z,14.80
2022-08-29T01:14:52.556Z,6.70
2022-08-29T01:17:39.776Z,9.68
2022-08-29T01:20:20.501Z,9.30
2022-08-29T01:23:12.789Z,7.60
2022-08-29T01:25:46.503Z,7.68
2022-08-29T01:28:22.831Z,9.95
2022-08-29T01:31:14.191Z,8.82
2022-08-29T01:33:59.844Z,8.35
2022-08-29T01:36:38.942Z,7.88
2022-08-29T01:39:07.338Z,6.53
2022-08-29T01:41:35.272Z,7.05
2022-08-29T01:44:13.943Z,9.32
2022-08-29T01:46:41.030Z,7.68
2022-08-29T01:49:11.291Z,10.48
2022-08-29T01:51:39.357Z,6.43
2022-08-29T01:54:08.384Z,12.35
2022-08-29T01:56:43.341Z,8.45
2022-08-29T01:59:14.634Z,11.88
2022-08-29T02:01:48.376Z,6.75
2022-08-29T02:04:15.667Z,9.60
2022-08-29T02:06:42.952Z,7.90
2022-08-29T02:09:11.359Z,8.70
2022-08-29T02:11:40.084Z,9.82
2022-08-29T02:14:08.181Z,9.15
2022-08-29T02:16:44.103Z,11.00
2022-08-29T02:19:11.268Z,8.30
2022-08-29T02:21:38.592Z,8.30
2022-08-29T02:24:24.036Z,13.02
2022-08-29T02:26:53.934Z,8.30
2022-08-29T02:29:20.784Z,8.00
2022-08-29T02:31:47.840Z,8.63
2022-08-29T02:34:15.249Z,13.15
2022-08-29T02:36:42.964Z,8.85
2022-08-29T02:39:12.035Z,11.23
2022-08-29T02:41:39.486Z,12.15
2022-08-29T02:44:09.328Z,8.07
2022-08-29T02:46:37.581Z,20.60
2022-08-29T02:49:04.803Z,8.65
2022-08-29T02:51:33.803Z,8.70
2022-08-29T02:54:01.620Z,8.52
2022-08-29T02:56:30.026Z,8.00
2022-08-29T02:58:58.020Z,11.30
2022-08-29T03:01:26.143Z,8.73
2022-08-29T03:03:53.967Z,11.52
2022-08-29T03:06:21.722Z,7.75
2022-08-29T03:08:50.534Z,13.27
2022-08-29T03:11:18.412Z,9.45
2022-08-29T03:13:46.874Z,10.18
2022-08-29T03:16:14.779Z,11.18
2022-08-29T03:18:42.172Z,11.40
2022-08-29T03:21:21.936Z,9.40
2022-08-29T03:23:51.053Z,13.48
2022-08-29T03:26:19.171Z,12.48
2022-08-29T03:28:46.172Z,11.23
2022-08-29T03:31:13.240Z,9.55
2022-08-29T03:33:41.713Z,10.80
2022-08-29T03:36:13.894Z,11.45
2022-08-29T03:38:43.982Z,7.60
2022-08-29T03:41:11.212Z,9.18
2022-08-29T03:43:38.141Z,10.98
2022-08-29T03:46:05.401Z,13.95
2022-08-29T03:48:33.625Z,9.05
2022-08-29T03:51:00.781Z,9.45
2022-08-29T03:53:27.897Z,8.85
2022-08-29T03:55:55.154Z,10.88
2022-08-29T03:58:22.018Z,13.63
2022-08-29T04:00:49.237Z,8.57
2022-08-29T04:03:16.731Z,7.65
2022-08-29T04:05:43.959Z,10.40
2022-08-29T04:08:11.064Z,10.32
2022-08-29T04:10:39.028Z,12.90
2022-08-29T04:13:08.221Z,17.33
2022-08-29T04:15:37.321Z,15.00
2022-08-29T04:18:07.208Z,14.30
2022-08-29T04:20:38.356Z,10.18
2022-08-29T04:23:06.391Z,20.15
2022-08-29T04:25:37.388Z,9.18
2022-08-29T04:28:09.302Z,6.47
2022-08-29T04:30:38.417Z,8.23
2022-08-29T04:33:05.851Z,17.98
2022-08-29T04:35:33.078Z,11.75
2022-08-29T04:37:59.992Z,10.10
2022-08-29T04:40:27.081Z,8.48
2022-08-29T04:42:54.132Z,8.85
2022-08-29T04:45:23.124Z,13.00
2022-08-29T04:47:50.293Z,9.93
2022-08-29T04:50:22.312Z,14.98
2022-08-29T04:52:50.700Z,10.27
2022-08-29T04:55:22.611Z,12.23
2022-08-29T04:57:54.132Z,11.98
2022-08-29T05:00:27.114Z,18.15
2022-08-29T05:02:54.345Z,8.82
2022-08-29T05:05:21.800Z,10.73
2022-08-29T05:07:48.843Z,10.68
2022-08-29T05:10:19.402Z,7.07
2022-08-29T05:12:46.943Z,14.15
2022-08-29T05:15:15.510Z,11.07
2022-08-29T05:17:43.000Z,16.05
2022-08-29T05:20:10.728Z,13.10
2022-08-29T05:22:39.331Z,17.50
2022-08-29T05:25:07.090Z,12.38
2022-08-29T05:27:34.349Z,12.45
2022-08-29T05:30:04.104Z,10.38
2022-08-29T05:32:31.130Z,12.85
2022-08-29T05:34:58.837Z,10.57
2022-08-29T05:37:26.498Z,11.57
2022-08-29T05:39:54.181Z,8.57
2022-08-29T05:42:22.708Z,11.40
2022-08-29T05:44:50.095Z,10.27
2022-08-29T05:47:19.154Z,12.63
2022-08-29T05:49:48.932Z,11.25
2022-08-29T05:52:19.380Z,7.82
2022-08-29T05:54:46.750Z,11.60
2022-08-29T05:57:19.325Z,14.60
2022-08-29T05:59:49.539Z,14.82
2022-08-29T06:02:17.956Z,12.95
2022-08-29T06:04:46.041Z,11.10
2022-08-29T06:07:14.387Z,12.40
2022-08-29T06:09:43.258Z,13.35
2022-08-29T06:12:13.545Z,11.45
2022-08-29T06:14:41.481Z,12.95
2022-08-29T06:17:17.914Z,12.75
2022-08-29T06:19:45.422Z,15.93
2022-08-29T06:22:13.011Z,16.30
2022-08-29T06:24:44.463Z,11.80
2022-08-29T06:27:13.035Z,16.58
2022-08-29T06:29:43.627Z,13.05
2022-08-29T06:32:12.907Z,14.65
2022-08-29T06:34:40.302Z,13.02
2022-08-29T06:37:07.494Z,15.65
2022-08-29T06:39:34.772Z,12.75
2022-08-29T06:42:02.343Z,18.30
2022-08-29T06:44:31.644Z,11.00
2022-08-29T06:46:59.487Z,12.25
2022-08-29T06:49:27.878Z,16.02
2022-08-29T06:51:58.101Z,14.15
2022-08-29T06:54:28.921Z,16.00
2022-08-29T06:56:57.799Z,14.80
2022-08-29T06:59:25.894Z,14.68
2022-08-29T07:01:55.154Z,11.27
2022-08-29T07:04:22.398Z,12.55
2022-08-29T07:06:50.177Z,10.02
2022-08-29T07:09:17.231Z,15.25
2022-08-29T07:11:44.412Z,16.60
2022-08-29T07:14:12.808Z,13.80
2022-08-29T07:16:41.206Z,11.25
2022-08-29T07:19:10.379Z,9.43
2022-08-29T07:21:38.756Z,12.98
2022-08-29T07:24:07.325Z,12.88
2022-08-29T07:26:41.406Z,12.40
2022-08-29T07:29:15.540Z,14.02
2022-08-29T07:31:42.980Z,10.23
2022-08-29T07:34:10.637Z,10.98
2022-08-29T07:36:38.709Z,13.57
2022-08-29T07:39:11.901Z,9.40
2022-08-29T07:41:41.412Z,16.75
2022-08-29T07:44:09.459Z,12.93
2022-08-29T07:46:37.150Z,11.80
2022-08-29T07:49:04.669Z,9.32
2022-08-29T07:51:31.847Z,17.13
2022-08-29T07:53:59.088Z,12.38
2022-08-29T07:56:40.103Z,13.00
2022-08-29T07:59:07.851Z,11.88
2022-08-29T08:01:35.628Z,14.10
2022-08-29T08:04:03.469Z,10.88
2022-08-29T08:06:30.709Z,12.80
2022-08-29T08:08:57.784Z,11.32
2022-08-29T08:11:26.126Z,11.18
2022-08-29T08:13:54.943Z,11.57
2022-08-29T08:16:26.389Z,12.38
2022-08-29T08:18:55.255Z,13.60
2022-08-29T08:21:24.219Z,12.93
2022-08-29T08:23:52.317Z,13.15
2022-08-29T08:26:20.462Z,13.18
2022-08-29T08:28:48.203Z,15.30
2022-08-29T08:31:17.238Z,12.43
2022-08-29T08:33:46.171Z,15.52
2022-08-29T08:36:25.368Z,19.40
2022-08-29T08:38:54.006Z,15.15
2022-08-29T08:41:43.442Z,11.30
2022-08-29T08:44:35.068Z,10.95
2022-08-29T08:47:08.245Z,9.77
2022-08-29T08:49:55.295Z,11.93
2022-08-29T08:55:46.155Z,8.63
2022-08-29T08:58:56.188Z,10.75
2022-08-29T09:01:34.440Z,8.70
2022-08-29T09:04:54.288Z,9.68
2022-08-29T09:07:48.419Z,11.93
2022-08-29T09:10:24.372Z,13.70
2022-08-29T09:14:04.148Z,13.18
2022-08-29T09:16:46.402Z,9.57
2022-08-29T09:19:17.222Z,15.10
2022-08-29T09:21:51.993Z,10.00
2022-08-29T09:24:50.333Z,7.53
2022-08-29T09:27:19.901Z,10.45
2022-08-29T09:29:49.553Z,11.60
2022-08-29T09:32:21.741Z,9.18
2022-08-29T09:35:08.079Z,9.50
2022-08-29T09:37:37.073Z,7.97
2022-08-29T09:40:11.311Z,10.90
2022-08-29T09:42:43.641Z,9.07
2022-08-29T09:45:25.111Z,9.55
2022-08-29T09:48:18.165Z,8.77
2022-08-29T09:50:45.990Z,8.43
2022-08-29T09:53:24.221Z,8.73
2022-08-29T09:55:53.311Z,6.70
2022-08-29T09:58:20.403Z,16.23
2022-08-29T10:01:17.766Z,9.18
2022-08-29T10:04:02.248Z,10.05
2022-08-29T10:06:44.234Z,11.68
2022-08-29T10:09:27.772Z,9.50
2022-08-29T10:12:12.723Z,12.15
2022-08-29T10:14:50.396Z,14.38
2022-08-29T10:17:55.864Z,8.90
2022-08-29T10:20:36.003Z,10.10
2022-08-29T10:23:17.578Z,10.15
2022-08-29T10:25:44.757Z,8.38
2022-08-29T10:28:52.562Z,8.07
2022-08-29T10:31:50.589Z,8.15
2022-08-29T10:34:45.899Z,13.20
2022-08-29T10:37:36.579Z,10.65
2022-08-29T10:40:16.785Z,10.55
2022-08-29T10:42:46.014Z,12.55
2022-08-29T10:45:39.200Z,7.93
2022-08-29T10:48:22.743Z,11.43
2022-08-29T10:51:26.179Z,6.97
2022-08-29T10:54:05.208Z,5.53
2022-08-29T10:56:40.798Z,7.47
2022-08-29T10:59:31.650Z,10.45
2022-08-29T11:02:29.514Z,10.63
2022-08-29T11:05:03.899Z,12.95
2022-08-29T11:07:37.056Z,11.48
2022-08-29T11:10:27.930Z,8.13
2022-08-29T11:13:28.890Z,9.25
2022-08-29T11:16:17.726Z,7.53
2022-08-29T11:18:50.041Z,8.95
2022-08-29T11:21:38.405Z,7.05
2022-08-29T11:24:07.381Z,8.07
2022-08-29T11:26:43.470Z,8.57
2022-08-29T11:29:42.010Z,7.07
2022-08-29T11:32:36.131Z,5.50
2022-08-29T11:35:31.249Z,8.15
2022-08-29T11:38:45.106Z,5.50
2022-08-29T11:41:29.168Z,7.78
2022-08-29T11:44:42.389Z,6.78
2022-08-29T11:47:46.755Z,4.50
2022-08-29T11:50:17.073Z,6.45
2022-08-29T11:53:24.381Z,6.95
2022-08-29T11:56:12.355Z,6.65
2022-08-29T11:58:43.029Z,11.65
2022-08-29T12:01:35.971Z,7.72
2022-08-29T12:04:08.308Z,4.15
2022-08-29T12:07:01.591Z,5.85
2022-08-29T12:09:35.154Z,6.18
2022-08-29T12:12:05.239Z,9.60
2022-08-29T12:14:52.699Z,6.85
2022-08-29T12:17:23.351Z,4.85
2022-08-29T12:19:56.465Z,6.13
2022-08-29T12:22:47.046Z,7.32
2022-08-29T12:25:55.252Z,5.63
2022-08-29T12:28:48.074Z,4.97
2022-08-29T12:32:18.756Z,5.55
2022-08-29T12:35:16.135Z,6.22
2022-08-29T12:38:31.453Z,4.75
2022-08-29T12:41:04.559Z,4.78
2022-08-29T12:43:37.706Z,7.30
2022-08-29T12:46:48.036Z,6.00
2022-08-29T12:49:50.993Z,4.50
2022-08-29T12:52:29.160Z,8.27
2022-08-29T12:55:03.289Z,5.00
2022-08-29T12:57:36.837Z,4.15
2022-08-29T13:00:16.633Z,7.53
2022-08-29T13:03:03.799Z,7.03
2022-08-29T13:05:33.535Z,8.85
2022-08-29T13:08:09.620Z,7.30
2022-08-29T13:10:53.402Z,6.45
2022-08-29T13:13:23.464Z,6.13
2022-08-29T13:15:53.872Z,7.50
2022-08-29T13:18:21.839Z,5.35
2022-08-29T13:21:07.647Z,7.68
2022-08-29T13:23:47.863Z,7.53
2022-08-29T13:26:14.954Z,6.35
2022-08-29T13:28:44.675Z,7.55
2022-08-29T13:31:11.874Z,6.30
2022-08-29T13:34:04.327Z,4.15
2022-08-29T13:36:46.423Z,6.22
2022-08-29T13:39:19.175Z,7.80
2022-08-29T13:42:14.034Z,7.05
2022-08-29T13:44:53.352Z,7.95
2022-08-29T13:47:25.620Z,6.25
2022-08-29T13:50:02.019Z,5.65
2022-08-29T13:52:31.711Z,7.07
2022-08-29T13:54:59.987Z,5.80
2022-08-29T13:57:29.504Z,4.72
2022-08-29T14:00:01.049Z,3.63
2022-08-29T14:02:33.977Z,7.25
2022-08-29T14:05:01.175Z,6.05
2022-08-29T14:07:31.308Z,6.57
2022-08-29T14:09:58.874Z,5.47
2022-08-29T14:12:32.875Z,5.07
2022-08-29T14:15:04.123Z,8.35
2022-08-29T14:17:36.097Z,4.80
2022-08-29T14:20:07.440Z,6.10
2022-08-29T14:22:34.754Z,4.55
2022-08-29T14:25:02.875Z,10.75
2022-08-29T14:27:29.835Z,4.47
2022-08-29T14:29:57.007Z,6.03
2022-08-29T14:32:24.257Z,7.03
2022-08-29T14:34:54.364Z,6.10
2022-08-29T14:37:21.768Z,3.63
2022-08-29T14:39:49.908Z,8.82
2022-08-29T14:42:18.209Z,5.15
2022-08-29T14:44:45.994Z,4.88
2022-08-29T14:47:13.643Z,4.95
2022-08-29T14:49:41.314Z,5.50
2022-08-29T14:52:08.582Z,5.50
2022-08-29T14:54:36.021Z,4.95
2022-08-29T14:57:03.283Z,6.80
2022-08-29T14:59:30.231Z,4.72
2022-08-29T15:01:57.362Z,4.28
2022-08-29T15:04:36.736Z,5.55
2022-08-29T15:07:10.739Z,3.47
2022-08-29T15:09:39.206Z,3.65
2022-08-29T15:12:06.639Z,5.45
2022-08-29T15:14:34.473Z,2.92
2022-08-29T15:17:03.458Z,3.17
2022-08-29T15:20:31.856Z,3.10
2022-08-29T15:22:18.801Z,4.82
2022-08-29T15:24:45.757Z,6.10
2022-08-29T15:27:13.101Z,2.20
2022-08-29T15:29:40.807Z,3.10
2022-08-29T15:32:09.418Z,2.78
2022-08-29T15:34:36.568Z,3.35
2022-08-29T15:37:04.939Z,5.70
2022-08-29T15:39:32.778Z,3.13
2022-08-29T15:42:03.825Z,4.72
2022-08-29T15:44:30.869Z,4.38
2022-08-29T15:46:58.569Z,3.45
2022-08-29T15:49:27.186Z,3.03
2022-08-29T15:51:55.375Z,5.50
2022-08-29T15:54:24.373Z,4.85
2022-08-29T15:56:52.441Z,2.65
2022-08-29T15:59:31.017Z,3.13
2022-08-29T16:02:10.507Z,2.75
2022-08-29T16:04:39.404Z,3.63
2022-08-29T16:07:06.535Z,2.65
2022-08-29T16:09:33.648Z,2.00
2022-08-29T16:12:00.599Z,2.33
2022-08-29T16:14:58.194Z,2.88
2022-08-29T16:17:15.303Z,2.15
2022-08-29T16:19:42.727Z,4.38
2022-08-29T16:22:10.462Z,1.90
2022-08-29T16:24:38.303Z,2.38
2022-08-29T16:27:06.574Z,4.22
2022-08-29T16:29:34.043Z,3.20
2022-08-29T16:32:01.867Z,1.65
2022-08-29T16:34:29.343Z,1.45
2022-08-29T16:37:01.327Z,1.67
2022-08-29T16:39:29.193Z,3.58
2022-08-29T16:41:56.795Z,2.33
2022-08-29T16:44:24.568Z,2.05
2022-08-29T16:46:52.144Z,1.10
2022-08-29T16:49:19.846Z,2.38
2022-08-29T16:51:46.928Z,2.67
2022-08-29T16:54:15.220Z,2.13
2022-08-29T16:56:42.779Z,1.77
2022-08-29T16:59:12.403Z,1.30
2022-08-29T17:01:49.800Z,2.38
2022-08-29T17:04:24.454Z,2.95
2022-08-29T17:06:52.493Z,1.08
2022-08-29T17:09:22.218Z,3.45
2022-08-29T17:11:51.446Z,1.85
2022-08-29T17:14:20.442Z,2.05
2022-08-29T17:16:51.582Z,2.85
2022-08-29T17:19:20.690Z,1.92
2022-08-29T17:21:49.136Z,2.55
2022-08-29T17:24:16.579Z,3.90
2022-08-29T17:26:46.964Z,2.08
2022-08-29T17:29:15.150Z,4.32
2022-08-29T17:31:42.686Z,2.60
2022-08-29T17:34:10.636Z,3.53
2022-08-29T17:36:40.435Z,1.92
2022-08-29T17:39:08.001Z,3.10
2022-08-29T17:41:37.119Z,2.97
2022-08-29T17:44:07.145Z,2.75
2022-08-29T17:46:35.003Z,3.20
2022-08-29T17:49:07.487Z,1.67
2022-08-29T17:51:36.478Z,4.53
2022-08-29T17:54:08.261Z,3.00
2022-08-29T17:56:46.524Z,3.03
2022-08-29T17:59:18.613Z,2.65
2022-08-29T18:01:46.789Z,3.15
2022-08-29T18:04:14.270Z,1.55
2022-08-29T18:06:42.402Z,2.80
2022-08-29T18:09:09.878Z,1.55
2022-08-29T18:11:47.573Z,3.45
2022-08-29T18:14:14.701Z,3.25
2022-08-29T18:16:41.607Z,5.03
2022-08-29T18:19:09.688Z,5.43
2022-08-29T18:21:37.165Z,4.03
2022-08-29T18:24:04.181Z,2.72
2022-08-29T18:26:34.529Z,3.42
2022-08-29T18:29:01.808Z,4.32
2022-08-29T18:31:28.719Z,6.43
2022-08-29T18:34:00.561Z,5.97
2022-08-29T18:36:30.892Z,6.55
2022-08-29T18:38:59.601Z,4.72
2022-08-29T18:41:26.971Z,5.53
2022-08-29T18:43:54.318Z,3.28
2022-08-29T18:46:21.497Z,3.03
2022-08-29T18:48:48.622Z,5.05
2022-08-29T18:51:15.685Z,4.47
2022-08-29T18:53:42.645Z,2.17
2022-08-29T18:56:10.154Z,3.75
2022-08-29T18:58:37.915Z,2.33
2022-08-29T19:01:17.464Z,3.33
2022-08-29T19:03:55.805Z,2.50
2022-08-29T19:06:25.770Z,3.42
2022-08-29T19:08:54.682Z,4.35
2022-08-29T19:11:21.808Z,3.38
2022-08-29T19:13:52.406Z,2.80
2022-08-29T19:16:21.262Z,2.05
2022-08-29T19:18:48.737Z,3.20
2022-08-29T19:21:16.267Z,4.57
2022-08-29T19:23:52.549Z,2.80
2022-08-29T19:26:32.729Z,3.78
2022-08-29T19:29:04.855Z,2.70
2022-08-29T19:31:31.948Z,4.20
2022-08-29T19:33:59.560Z,4.10
2022-08-29T19:36:28.605Z,4.75
2022-08-29T19:38:55.601Z,6.88
2022-08-29T19:41:23.004Z,4.57
2022-08-29T19:43:52.600Z,8.02
2022-08-29T19:46:23.773Z,4.53
2022-08-29T19:48:52.285Z,4.03
2022-08-29T19:51:24.755Z,3.35
2022-08-29T19:53:56.560Z,3.17
2022-08-29T19:56:26.572Z,3.05
2022-08-29T19:58:54.165Z,4.25
2022-08-29T20:01:21.425Z,5.20
2022-08-29T20:03:48.622Z,3.83
2022-08-29T20:06:15.952Z,2.67
2022-08-29T20:08:46.714Z,4.70
2022-08-29T20:11:21.213Z,2.60
2022-08-29T20:13:51.498Z,4.05
2022-08-29T20:16:24.525Z,2.78
2022-08-29T20:18:52.517Z,2.25
2022-08-29T20:21:23.525Z,3.35
2022-08-29T20:23:57.829Z,1.40
2022-08-29T20:26:31.450Z,1.25
2022-08-29T20:29:01.050Z,5.07
2022-08-29T20:31:28.843Z,0.95
2022-08-29T20:33:56.113Z,1.17
2022-08-29T20:36:43.196Z,1.02
2022-08-29T20:41:40.926Z,2.75
2022-08-29T20:44:09.923Z,2.38
2022-08-29T20:46:41.975Z,1.33
2022-08-29T20:49:10.506Z,3.92
2022-08-29T20:51:38.587Z,1.60
2022-08-29T20:54:06.478Z,1.92
2022-08-29T20:56:33.329Z,3.13
2022-08-29T20:59:00.218Z,2.13
2022-08-29T21:01:27.972Z,1.85
2022-08-29T21:04:14.127Z,1.40
2022-08-29T21:06:48.848Z,2.38
2022-08-29T21:09:16.160Z,2.08
2022-08-29T21:11:43.147Z,1.88
2022-08-29T21:14:10.298Z,1.55
2022-08-29T21:16:37.621Z,1.45
2022-08-29T21:19:09.889Z,1.73
2022-08-29T21:21:38.965Z,1.55
2022-08-29T21:24:07.911Z,2.92
2022-08-29T21:26:35.276Z,2.10
2022-08-29T21:29:04.621Z,1.50
2022-08-29T21:31:33.432Z,2.85
2022-08-29T21:34:05.127Z,1.10
2022-08-29T21:36:36.228Z,1.85
2022-08-29T21:39:06.068Z,2.10
2022-08-29T21:41:36.899Z,1.63
2022-08-29T21:44:04.160Z,1.27
2022-08-29T21:46:35.217Z,1.83
2022-08-29T21:49:06.777Z,1.88
2022-08-29T21:51:34.909Z,1.20
2022-08-29T21:54:02.759Z,1.75
2022-08-29T21:56:32.178Z,3.97
2022-08-29T21:59:01.194Z,2.10
2022-08-29T22:01:39.132Z,6.38
2022-08-29T22:04:10.418Z,2.45
2022-08-29T22:06:41.047Z,2.20
2022-08-29T22:09:12.522Z,2.53
2022-08-29T22:11:40.892Z,1.40
2022-08-29T22:14:09.819Z,1.48
2022-08-29T22:16:37.939Z,2.67
2022-08-29T22:19:17.293Z,1.55
2022-08-29T22:21:51.899Z,2.50
2022-08-29T22:24:19.159Z,2.65
2022-08-29T22:26:48.005Z,3.03
2022-08-29T22:29:19.991Z,1.10
2022-08-29T22:31:47.208Z,1.33
2022-08-29T22:34:17.546Z,3.55
2022-08-29T22:36:44.503Z,1.60
2022-08-29T22:39:11.752Z,1.48
2022-08-29T22:41:40.630Z,2.08
2022-08-29T22:46:58.632Z,2.60
2022-08-29T22:49:33.122Z,3.25
2022-08-29T22:52:01.311Z,1.40
2022-08-29T22:54:37.544Z,1.50
2022-08-29T22:59:36.144Z,3.05
2022-08-29T23:02:04.618Z,2.40
2022-08-29T23:04:32.296Z,4.22
2022-08-29T23:06:59.916Z,3.40
2022-08-29T23:09:28.272Z,3.67
2022-08-29T23:12:03.882Z,1.70
2022-08-29T23:14:35.738Z,2.40
2022-08-29T23:17:07.796Z,1.75
2022-08-29T23:19:36.504Z,4.75
2022-08-29T23:22:06.434Z,2.58
2022-08-29T23:24:33.805Z,3.80
2022-08-29T23:27:01.331Z,2.47
2022-08-29T23:29:30.859Z,3.05
2022-08-29T23:31:58.110Z,4.07
2022-08-29T23:34:25.028Z,2.20
2022-08-29T23:36:52.388Z,2.22
2022-08-29T23:39:19.454Z,4.82
2022-08-29T23:41:46.373Z,1.75
2022-08-29T23:44:13.543Z,4.03
2022-08-29T23:46:40.482Z,2.38
2022-08-29T23:49:07.730Z,2.60
2022-08-29T23:51:35.880Z,2.90
2022-08-29T23:54:02.955Z,4.38
2022-08-29T23:56:29.829Z,2.97
2022-08-29T23:58:57.949Z,5.22
